Time;durP1;ratioP1;P1;durP2;ratioP2;P2;SDS_P1;SDS_P2;PMS_P1;PMS_P2;Temp;Humidity;BMP_temperature;BMP_pressure;BME280_temperature;BME280_humidity;BME280_pressure;Samples;Min_cycle;Max_cycle;Signal;HPM_P1;HPM_P2
2022/12/25 00:02:06;;;;;;;4.70;4.00;;;;;;;8.00;68.80;95245.78;5042547;28;20194;-67
2022/12/25 00:04:31;;;;;;;6.37;4.73;;;;;;;7.98;68.94;95246.88;5041038;28;20232;-67
2022/12/25 00:06:58;;;;;;;4.17;3.77;;;;;;;7.89;69.20;95254.56;5045229;28;20194;-66
2022/12/25 00:09:23;;;;;;;5.87;4.20;;;;;;;8.03;68.97;95255.19;5043484;28;20205;-66
2022/12/25 00:11:49;;;;;;;5.97;4.30;;;;;;;7.86;69.50;95259.22;5038259;28;20195;-66
2022/12/25 00:14:14;;;;;;;6.13;4.00;;;;;;;7.98;69.39;95262.59;5040886;28;20182;-66
2022/12/25 00:16:40;;;;;;;5.20;4.13;;;;;;;7.95;69.60;95264.50;5044772;28;20267;-66
2022/12/25 00:19:05;;;;;;;6.40;4.63;;;;;;;7.85;69.81;95268.84;5042892;28;20284;-66
2022/12/25 00:21:32;;;;;;;5.90;4.37;;;;;;;7.90;69.86;95274.53;5049748;28;20189;-66
2022/12/25 00:23:58;;;;;;;4.53;3.90;;;;;;;7.99;69.69;95278.16;5050653;28;20221;-66
2022/12/25 00:26:25;;;;;;;5.43;3.90;;;;;;;7.84;70.19;95276.84;5048325;28;20225;-66
2022/12/25 00:28:52;;;;;;;4.27;3.50;;;;;;;7.94;69.98;95283.81;5045644;28;20200;-66
2022/12/25 00:31:19;;;;;;;4.53;3.77;;;;;;;7.89;70.03;95275.50;5038991;28;20218;-66
2022/12/25 00:33:46;;;;;;;5.00;3.80;;;;;;;7.88;70.28;95276.44;5043930;28;20219;-66
2022/12/25 00:36:14;;;;;;;5.43;4.60;;;;;;;8.03;69.77;95286.59;5047563;28;20229;-66
2022/12/25 00:38:40;;;;;;;4.93;4.17;;;;;;;7.95;69.89;95284.63;5047735;28;20243;-66
2022/12/25 00:41:07;;;;;;;3.90;3.60;;;;;;;8.02;70.00;95285.78;5042233;28;20201;-66
2022/12/25 00:43:33;;;;;;;4.57;4.00;;;;;;;8.02;70.02;95282.31;5040107;28;20239;-67
2022/12/25 00:46:01;;;;;;;4.53;4.13;;;;;;;7.94;70.25;95281.19;5042256;28;20182;-65
2022/12/25 00:48:28;;;;;;;6.00;4.57;;;;;;;8.04;69.86;95288.25;5040824;28;20243;-66
2022/12/25 00:50:59;;;;;;;4.90;4.03;;;;;;;8.03;69.88;95279.56;5043684;28;20185;-66
2022/12/25 00:53:26;;;;;;;4.10;3.70;;;;;;;8.05;69.65;95282.91;5036466;28;20216;-66
2022/12/25 00:56:00;;;;;;;4.27;3.63;;;;;;;8.23;68.79;95277.88;5041123;28;20182;-65
2022/12/25 00:58:28;;;;;;;4.90;3.93;;;;;;;8.15;68.92;95277.69;5041806;28;20231;-66
2022/12/25 01:00:55;;;;;;;4.90;3.70;;;;;;;8.03;69.22;95286.59;5050530;28;20185;-66
2022/12/25 01:03:21;;;;;;;4.27;3.87;;;;;;;8.08;68.95;95274.78;5041715;28;20181;-65
2022/12/25 01:06:00;;;;;;;4.10;3.53;;;;;;;8.09;69.08;95273.81;5040092;28;20256;-65
2022/12/25 01:08:28;;;;;;;4.33;3.27;;;;;;;7.97;69.68;95281.88;5052539;28;20189;-65
2022/12/25 01:10:58;;;;;;;3.43;2.87;;;;;;;8.08;69.16;95277.41;5047132;28;20280;-66
2022/12/25 01:13:24;;;;;;;3.90;3.50;;;;;;;8.04;68.91;95272.53;5045494;28;20280;-65
2022/12/25 01:15:53;;;;;;;3.73;3.00;;;;;;;7.95;69.21;95272.34;5047786;28;20321;-65
2022/12/25 01:18:20;;;;;;;3.43;3.13;;;;;;;7.99;68.90;95285.19;5036320;28;20182;-66
2022/12/25 01:20:46;;;;;;;3.30;3.00;;;;;;;8.09;68.10;95278.22;5045423;28;20185;-66
2022/12/25 01:23:11;;;;;;;3.37;2.97;;;;;;;8.07;68.01;95270.50;5045787;28;20181;-66
2022/12/25 01:25:37;;;;;;;3.30;2.77;;;;;;;8.04;67.68;95277.78;5039369;28;20206;-66
2022/12/25 01:28:03;;;;;;;3.20;2.90;;;;;;;8.03;67.72;95274.34;5038302;28;20196;-66
2022/12/25 01:30:28;;;;;;;3.27;2.70;;;;;;;7.91;67.97;95270.97;5049092;28;20181;-67
2022/12/25 01:32:53;;;;;;;3.40;2.73;;;;;;;7.98;68.08;95279.13;5055331;28;20194;-66
2022/12/25 01:35:19;;;;;;;4.53;3.17;;;;;;;7.91;68.18;95276.22;5036003;28;20197;-67
2022/12/25 01:37:44;;;;;;;3.20;2.90;;;;;;;8.03;67.53;95276.13;5034070;28;20251;-66
2022/12/25 01:40:10;;;;;;;4.83;2.80;;;;;;;8.07;67.39;95275.75;5044355;28;20185;-66
2022/12/25 01:42:35;;;;;;;4.43;2.80;;;;;;;7.96;67.83;95273.19;5036625;28;20186;-66
2022/12/25 01:45:32;;;;;;;3.73;2.50;;;;;;;7.89;68.13;95275.50;5038717;28;20209;-66
2022/12/25 01:47:59;;;;;;;3.50;3.20;;;;;;;7.81;68.22;95267.47;5044988;28;20194;-66
2022/12/25 01:50:25;;;;;;;4.10;3.27;;;;;;;7.84;67.94;95274.22;5037511;28;20272;-66
2022/12/25 01:52:51;;;;;;;3.50;3.20;;;;;;;7.78;68.31;95267.72;5038717;28;20190;-66
2022/12/25 01:55:17;;;;;;;4.77;2.83;;;;;;;7.79;68.40;95277.22;5035178;28;20572;-66
2022/12/25 01:57:43;;;;;;;4.23;3.50;;;;;;;7.73;68.37;95270.72;5042040;28;20213;-66
2022/12/25 02:00:10;;;;;;;3.47;3.17;;;;;;;7.74;68.40;95274.16;5042581;28;20182;-66
2022/12/25 02:02:37;;;;;;;3.77;2.97;;;;;;;7.80;68.21;95275.44;5047651;28;20197;-66
2022/12/25 02:05:11;;;;;;;3.50;3.07;;;;;;;7.84;67.97;95277.66;5048565;28;20198;-66
2022/12/25 02:07:40;;;;;;;3.87;3.23;;;;;;;7.69;68.05;95278.94;5051344;28;20200;-66
2022/12/25 02:10:07;;;;;;;6.17;3.43;;;;;;;7.68;68.12;95274.69;5048491;28;20191;-66
2022/12/25 02:12:34;;;;;;;3.90;3.47;;;;;;;7.80;67.45;95281.50;5045828;28;20252;-66
2022/12/25 02:15:27;;;;;;;4.13;3.17;;;;;;;7.92;67.27;95275.25;5053770;28;20197;-66
2022/12/25 02:18:08;;;;;;;3.97;3.20;;;;;;;7.79;67.90;95274.59;5043691;28;20204;-66
2022/12/25 02:20:52;;;;;;;3.40;3.03;;;;;;;7.74;67.65;95276.78;5044523;28;20185;-66
2022/12/25 02:23:29;;;;;;;4.73;3.80;;;;;;;7.76;67.80;95279.28;5062903;28;20220;-66
2022/12/25 02:26:07;;;;;;;5.00;3.10;;;;;;;7.63;67.68;95277.66;5042801;28;20228;-66
2022/12/25 02:28:46;;;;;;;3.23;2.93;;;;;;;7.58;67.81;95269.38;5041313;28;20185;-66
2022/12/25 02:31:43;;;;;;;4.27;3.50;;;;;;;7.46;68.22;95288.72;5038711;28;20192;-66
2022/12/25 02:34:31;;;;;;;3.37;3.07;;;;;;;7.53;67.38;95273.31;5015632;28;20280;-66
2022/12/25 02:37:11;;;;;;;4.20;3.30;;;;;;;7.35;68.17;95286.13;5032195;28;20246;-66
2022/12/25 02:40:27;;;;;;;5.20;3.40;;;;;;;7.46;67.92;95268.59;5030454;28;20204;-66
2022/12/25 03:08:40;;;;;;;3.73;2.97;;;;;;;7.61;66.38;95302.31;4969132;28;20372;-66
2022/12/25 03:16:49;;;;;;;2.90;2.70;;;;;;;7.57;65.78;95303.53;4990978;28;20273;-67
2022/12/25 03:16:51;;;;;;;4.27;2.93;;;;;;;7.58;65.18;95311.25;4990568;28;20311;-66
2022/12/25 03:27:38;;;;;;;4.33;2.83;;;;;;;7.63;64.81;95319.53;5035369;28;20208;-66
2022/12/25 03:33:04;;;;;;;3.97;2.87;;;;;;;7.46;65.32;95315.69;5016922;28;20257;-65
2022/12/25 03:35:45;;;;;;;5.83;3.73;;;;;;;7.51;65.09;95318.78;5017503;28;20261;-67
2022/12/25 04:37:07;;;;;;;3.87;3.30;;;;;;;7.43;65.19;95372.66;5040813;28;20233;-67
2022/12/25 04:39:33;;;;;;;4.23;3.37;;;;;;;7.42;65.18;95371.84;5044460;28;20198;-66
2022/12/25 04:41:59;;;;;;;4.77;3.43;;;;;;;7.47;65.02;95367.06;5046210;28;20197;-66
2022/12/25 04:44:25;;;;;;;4.13;3.67;;;;;;;7.40;65.28;95378.97;5040106;28;20225;-66
2022/12/25 04:46:51;;;;;;;3.70;2.90;;;;;;;7.26;65.72;95387.09;5049175;28;20217;-67
2022/12/25 04:49:16;;;;;;;4.93;3.47;;;;;;;7.15;66.30;95392.38;5042390;28;20218;-66
2022/12/25 04:51:42;;;;;;;4.63;3.80;;;;;;;7.35;65.70;95377.69;5046890;28;20224;-66
2022/12/25 04:54:07;;;;;;;4.63;3.63;;;;;;;7.21;66.45;95394.47;5049412;28;20204;-66
2022/12/25 04:56:33;;;;;;;6.43;3.57;;;;;;;7.28;66.09;95387.81;5050909;28;20236;-66
2022/12/25 04:58:58;;;;;;;5.00;4.30;;;;;;;7.21;66.70;95397.09;5052811;28;20249;-66
2022/12/25 05:01:24;;;;;;;4.40;3.93;;;;;;;7.24;66.70;95400.31;5045059;28;20221;-66
2022/12/25 05:03:49;;;;;;;4.43;3.60;;;;;;;7.01;67.27;95399.50;5042279;28;20313;-66
2022/12/25 05:06:15;;;;;;;4.03;3.43;;;;;;;7.02;67.49;95393.31;5050607;28;20224;-66
2022/12/25 05:08:40;;;;;;;4.07;3.63;;;;;;;7.09;67.21;95405.94;5046464;28;20237;-66
2022/12/25 05:11:08;;;;;;;5.73;3.80;;;;;;;7.20;66.91;95404.13;5048061;28;20221;-66
2022/12/25 05:13:34;;;;;;;5.50;3.70;;;;;;;7.07;66.62;95391.19;5048748;28;20231;-66
2022/12/25 05:15:59;;;;;;;3.83;3.33;;;;;;;7.07;66.87;95393.78;5045294;28;20217;-67
2022/12/25 05:18:25;;;;;;;4.13;3.50;;;;;;;7.05;66.83;95395.69;5045048;28;20190;-66
2022/12/25 05:20:54;;;;;;;3.87;3.30;;;;;;;7.03;66.86;95399.38;5043485;28;20192;-66
2022/12/25 05:23:20;;;;;;;4.90;3.63;;;;;;;6.98;66.88;95397.16;5049859;28;20255;-66
2022/12/25 05:25:46;;;;;;;3.93;3.30;;;;;;;7.11;66.23;95398.78;5043267;28;20244;-66
2022/12/25 05:28:11;;;;;;;3.17;2.87;;;;;;;7.11;65.89;95391.78;5041256;28;20225;-66
2022/12/25 05:30:37;;;;;;;3.50;3.20;;;;;;;7.20;65.21;95395.44;5055243;28;20224;-66
2022/12/25 05:33:02;;;;;;;3.67;2.60;;;;;;;7.16;65.13;95400.06;5037835;28;20189;-66
2022/12/25 05:35:28;;;;;;;3.00;2.40;;;;;;;7.19;64.77;95412.06;5045036;28;20220;-66
2022/12/25 05:37:54;;;;;;;3.47;2.63;;;;;;;7.20;64.12;95396.28;5048571;28;20229;-66
2022/12/25 05:40:20;;;;;;;3.73;2.40;;;;;;;7.00;64.68;95412.69;5053552;28;20233;-66
2022/12/25 05:42:45;;;;;;;4.30;2.43;;;;;;;7.15;64.17;95408.06;5054462;28;20231;-65
2022/12/25 05:45:11;;;;;;;3.83;2.23;;;;;;;7.17;63.54;95409.59;5048205;28;20210;-65
2022/12/25 05:47:37;;;;;;;2.57;1.80;;;;;;;7.11;63.67;95406.63;5039116;28;20309;-65
2022/12/25 05:50:03;;;;;;;2.20;1.90;;;;;;;7.24;63.08;95404.69;5042952;28;20312;-65
2022/12/25 05:52:32;;;;;;;2.90;1.60;;;;;;;7.14;62.90;95407.22;5041321;28;20226;-66
2022/12/25 05:54:59;;;;;;;3.60;1.70;;;;;;;7.21;62.27;95412.78;5022828;28;20522;-66
2022/12/25 05:57:28;;;;;;;2.40;1.60;;;;;;;7.28;62.23;95422.66;5021201;28;20190;-65
2022/12/25 05:59:53;;;;;;;3.10;1.73;;;;;;;7.38;61.54;95420.16;5059601;28;20257;-66
2022/12/25 06:02:19;;;;;;;2.20;1.80;;;;;;;7.42;61.36;95423.34;5053720;28;20232;-65
2022/12/25 06:04:44;;;;;;;3.47;1.83;;;;;;;7.23;61.87;95429.19;5040771;28;20233;-66
2022/12/25 06:07:10;;;;;;;2.53;1.87;;;;;;;7.39;61.62;95432.25;5043056;28;20220;-66
2022/12/25 06:09:35;;;;;;;2.40;1.70;;;;;;;7.39;61.40;95434.06;5052034;28;20196;-66
2022/12/25 06:12:00;;;;;;;2.83;1.67;;;;;;;7.37;61.90;95443.81;5050764;28;20211;-66
2022/12/25 06:14:26;;;;;;;2.83;2.00;;;;;;;7.38;61.59;95440.25;5048105;28;20229;-66
2022/12/25 06:16:52;;;;;;;2.17;1.47;;;;;;;7.48;61.42;95446.38;5041493;28;20225;-66
2022/12/25 06:19:18;;;;;;;2.17;1.47;;;;;;;7.52;60.85;95442.59;5038657;28;20296;-66
2022/12/25 06:21:44;;;;;;;5.77;1.60;;;;;;;7.57;60.97;95443.06;5040285;28;20229;-66
2022/12/25 06:24:09;;;;;;;3.17;1.70;;;;;;;7.56;61.18;95461.47;5047085;28;20202;-66
2022/12/25 06:26:35;;;;;;;1.77;1.40;;;;;;;7.67;60.85;95454.44;5050537;28;20217;-66
2022/12/25 06:29:01;;;;;;;2.33;1.47;;;;;;;7.73;60.58;95461.81;5030512;28;20225;-66
2022/12/25 06:31:26;;;;;;;1.53;1.43;;;;;;;7.67;60.71;95459.69;5029215;28;20227;-66
2022/12/25 06:33:52;;;;;;;1.63;1.53;;;;;;;7.65;60.80;95468.63;5031553;28;20301;-66
2022/12/25 06:36:21;;;;;;;2.90;1.63;;;;;;;7.62;60.95;95467.06;5040487;28;20230;-66
2022/12/25 06:38:47;;;;;;;4.13;1.40;;;;;;;7.69;60.70;95473.47;5040251;28;20224;-66
2022/12/25 06:41:18;;;;;;;1.73;1.30;;;;;;;7.88;60.14;95470.19;5037222;28;20250;-66
2022/12/25 06:43:50;;;;;;;2.47;1.57;;;;;;;7.94;59.82;95472.34;5031192;28;20230;-66
2022/12/25 06:46:17;;;;;;;3.53;1.60;;;;;;;8.00;59.46;95481.47;5027487;28;20357;-66
2022/12/25 06:48:47;;;;;;;2.60;1.53;;;;;;;7.90;59.91;95476.13;5034197;28;20217;-66
2022/12/25 06:51:17;;;;;;;3.00;1.70;;;;;;;7.93;60.02;95477.69;5038496;28;20277;-66
2022/12/25 06:53:43;;;;;;;3.67;1.60;;;;;;;7.82;60.46;95502.13;5027793;28;20222;-67
2022/12/25 06:56:14;;;;;;;4.13;1.87;;;;;;;8.01;59.93;95493.59;5046468;28;20240;-67
2022/12/25 06:58:45;;;;;;;2.10;1.60;;;;;;;7.96;59.74;95501.00;5025746;28;20238;-67
2022/12/25 07:01:17;;;;;;;1.73;1.63;;;;;;;8.04;59.97;95501.22;5037742;28;20221;-66
2022/12/25 07:03:45;;;;;;;2.53;1.90;;;;;;;7.99;59.90;95508.59;5049489;28;20216;-67
2022/12/25 07:06:10;;;;;;;3.10;1.90;;;;;;;8.11;59.62;95506.78;5031227;28;20193;-67
2022/12/25 07:08:36;;;;;;;2.30;1.57;;;;;;;8.06;60.01;95506.34;5030422;28;20222;-66
2022/12/25 07:11:02;;;;;;;2.97;1.80;;;;;;;8.11;59.83;95514.66;5030794;28;20305;-67
2022/12/25 07:13:27;;;;;;;3.43;1.87;;;;;;;8.22;59.57;95522.47;5026208;28;20234;-67
2022/12/25 07:15:57;;;;;;;3.50;1.83;;;;;;;8.34;59.09;95520.63;5032127;28;20225;-66
2022/12/25 07:18:23;;;;;;;2.63;1.77;;;;;;;8.29;59.14;95523.63;5029782;28;20225;-66
2022/12/25 07:20:48;;;;;;;3.23;1.67;;;;;;;8.32;58.98;95515.53;5032820;28;20187;-66
2022/12/25 07:23:13;;;;;;;3.47;1.90;;;;;;;8.49;58.71;95529.88;5056242;28;20305;-67
2022/12/25 07:25:39;;;;;;;2.83;1.70;;;;;;;8.52;58.41;95529.63;5020609;28;20226;-66
2022/12/25 07:28:04;;;;;;;2.27;1.43;;;;;;;8.41;58.89;95529.69;5032592;28;20277;-66
2022/12/25 07:30:30;;;;;;;3.37;2.10;;;;;;;8.44;59.02;95516.31;5026153;28;20236;-66
2022/12/25 07:32:56;;;;;;;2.60;1.70;;;;;;;8.51;58.23;95524.53;5045105;28;20285;-66
2022/12/25 07:35:21;;;;;;;2.07;1.50;;;;;;;8.53;58.63;95530.47;5050215;28;20213;-67
2022/12/25 07:37:47;;;;;;;2.37;1.80;;;;;;;8.54;58.67;95526.88;5039923;28;20230;-66
2022/12/25 07:40:12;;;;;;;3.33;1.47;;;;;;;8.60;58.14;95531.63;5040205;28;20312;-66
2022/12/25 07:42:38;;;;;;;3.17;1.67;;;;;;;8.82;57.75;95543.75;5047035;28;20233;-67
2022/12/25 07:45:04;;;;;;;2.43;1.53;;;;;;;8.80;57.97;95543.09;5046080;28;20214;-66
2022/12/25 07:47:30;;;;;;;2.77;1.67;;;;;;;8.92;57.65;95551.72;5038188;28;20234;-66
2022/12/25 07:49:55;;;;;;;2.37;1.43;;;;;;;8.82;57.99;95549.88;5048831;28;20271;-66
2022/12/25 07:52:21;;;;;;;2.70;1.90;;;;;;;8.87;58.03;95564.38;5046361;28;20229;-67
2022/12/25 07:54:47;;;;;;;3.60;1.90;;;;;;;8.87;57.86;95551.25;5050698;28;20229;-66
2022/12/25 07:57:12;;;;;;;2.20;1.60;;;;;;;8.80;58.01;95564.88;5050299;28;20186;-66
2022/12/25 07:59:38;;;;;;;2.60;1.70;;;;;;;8.97;57.69;95562.66;5051774;28;20332;-66
2022/12/25 08:02:03;;;;;;;2.57;1.50;;;;;;;9.12;57.07;95571.03;5051685;28;20217;-66
2022/12/25 08:05:19;;;;;;;2.67;1.50;;;;;;;9.02;57.52;95579.66;5047071;28;20241;-66
2022/12/25 08:07:54;;;;;;;4.07;1.70;;;;;;;9.24;56.98;95589.19;5049265;28;20240;-66
2022/12/25 08:10:19;;;;;;;4.33;2.03;;;;;;;9.14;57.05;95585.69;5045574;28;20312;-67
2022/12/25 08:12:45;;;;;;;3.13;1.77;;;;;;;9.08;57.55;95573.06;5048569;28;20250;-66
2022/12/25 08:15:10;;;;;;;3.23;2.23;;;;;;;8.93;58.03;95596.19;5047998;28;20201;-66
2022/12/25 08:17:36;;;;;;;2.37;1.73;;;;;;;9.13;57.87;95581.38;5052073;28;20221;-66
2022/12/25 08:20:01;;;;;;;5.03;2.10;;;;;;;9.14;57.46;95576.97;5041172;28;20217;-66
2022/12/25 08:22:27;;;;;;;3.10;1.73;;;;;;;9.11;57.84;95583.28;5035568;28;20218;-66
2022/12/25 08:24:52;;;;;;;2.47;1.60;;;;;;;9.15;57.78;95579.47;5042406;28;20233;-66
2022/12/25 08:27:17;;;;;;;2.40;1.77;;;;;;;9.12;57.49;95584.97;5044307;28;20189;-67
2022/12/25 08:29:43;;;;;;;5.60;2.03;;;;;;;9.16;57.49;95575.88;5050376;28;20189;-66
2022/12/25 08:32:11;;;;;;;2.10;1.30;;;;;;;9.14;57.58;95569.94;5036075;28;20249;-67
2022/12/25 08:34:37;;;;;;;5.63;1.93;;;;;;;9.23;57.49;95571.78;5042338;28;20228;-66
2022/12/25 08:37:02;;;;;;;3.47;1.70;;;;;;;9.40;56.68;95566.88;5049284;28;20225;-66
2022/12/25 08:39:28;;;;;;;2.80;1.77;;;;;;;9.52;56.58;95571.09;5037514;28;20243;-66
2022/12/25 08:41:53;;;;;;;2.20;1.60;;;;;;;9.47;57.04;95581.16;5044126;28;20174;-65
2022/12/25 08:44:19;;;;;;;2.23;1.73;;;;;;;9.43;56.89;95571.88;5050747;28;20313;-66
2022/12/25 08:46:44;;;;;;;3.60;1.90;;;;;;;9.53;56.73;95578.00;5045399;28;20273;-65
2022/12/25 08:49:10;;;;;;;2.63;1.53;;;;;;;9.67;55.74;95580.25;5043256;28;20249;-66
2022/12/25 08:51:36;;;;;;;7.13;2.20;;;;;;;9.60;56.12;95581.78;5051137;28;20272;-66
2022/12/25 08:54:02;;;;;;;3.70;1.80;;;;;;;9.69;56.02;95578.34;5037969;28;20316;-65
2022/12/25 08:56:27;;;;;;;2.97;1.67;;;;;;;9.71;56.17;95586.09;5055145;28;20274;-66
2022/12/25 08:58:53;;;;;;;2.43;1.97;;;;;;;9.66;56.06;95583.84;5043132;28;20221;-66
2022/12/25 09:01:18;;;;;;;2.47;1.83;;;;;;;9.75;56.10;95589.28;5043641;28;20228;-66
2022/12/25 09:03:44;;;;;;;3.70;2.07;;;;;;;9.76;56.14;95581.28;5044993;28;20228;-67
2022/12/25 09:06:12;;;;;;;2.90;1.87;;;;;;;9.83;56.00;95578.94;5025139;28;20206;-67
2022/12/25 09:08:38;;;;;;;2.83;1.60;;;;;;;10.03;55.40;95596.44;5038386;28;20233;-67
2022/12/25 09:11:06;;;;;;;4.63;2.03;;;;;;;10.05;55.46;95598.91;5038413;28;20218;-67
2022/12/25 09:13:32;;;;;;;2.63;1.80;;;;;;;9.96;55.94;95607.59;5038310;28;20226;-67
2022/12/25 09:15:58;;;;;;;3.03;1.50;;;;;;;10.08;55.20;95598.66;5045066;28;20213;-67
2022/12/25 09:18:24;;;;;;;1.90;1.70;;;;;;;10.03;55.16;95600.88;5051165;28;20189;-67
2022/12/25 09:21:17;;;;;;;2.57;1.40;;;;;;;10.02;55.19;95584.25;5046627;28;20223;-66
2022/12/25 09:23:43;;;;;;;3.07;1.70;;;;;;;10.00;55.48;95594.09;5045076;28;20304;-67
2022/12/25 09:26:13;;;;;;;2.53;1.80;;;;;;;9.94;55.43;95584.94;5034704;28;20237;-67
2022/12/25 09:28:38;;;;;;;3.47;1.90;;;;;;;10.05;55.57;95584.00;5043413;28;20253;-67
2022/12/25 09:31:04;;;;;;;3.10;1.90;;;;;;;10.17;55.21;95597.84;5045840;28;20221;-67
2022/12/25 09:33:29;;;;;;;3.93;1.87;;;;;;;10.31;54.68;95594.03;5038263;28;20201;-67
2022/12/25 09:36:06;;;;;;;2.60;1.53;;;;;;;10.35;54.62;95591.00;5039892;28;20210;-66
2022/12/25 09:38:33;;;;;;;3.40;1.80;;;;;;;10.51;53.83;95595.72;5025468;28;20245;-67
2022/12/25 09:41:29;;;;;;;2.70;1.67;;;;;;;10.31;53.48;95586.13;5048840;28;20342;-67
2022/12/25 09:44:12;;;;;;;2.50;1.43;;;;;;;10.45;53.06;95598.91;5036256;28;20275;-67
2022/12/25 09:46:52;;;;;;;2.00;1.40;;;;;;;10.71;52.42;95578.13;5040356;28;20222;-67
2022/12/25 09:49:26;;;;;;;4.97;1.60;;;;;;;10.73;52.15;95581.47;5019698;28;20225;-67
2022/12/25 09:51:58;;;;;;;2.60;1.40;;;;;;;10.56;52.49;95587.44;5026388;28;20252;-66
2022/12/25 09:54:40;;;;;;;1.70;1.23;;;;;;;10.62;52.03;95578.97;5026196;28;20185;-66
2022/12/25 09:57:10;;;;;;;2.50;1.50;;;;;;;10.78;51.90;95571.38;5031735;28;20182;-67
2022/12/25 09:59:37;;;;;;;3.03;1.40;;;;;;;10.79;51.46;95569.56;5022335;28;20273;-67
2022/12/25 10:02:24;;;;;;;1.63;1.10;;;;;;;10.88;51.25;95571.38;5017714;28;20222;-67
2022/12/25 10:05:16;;;;;;;3.63;1.40;;;;;;;10.89;51.23;95564.28;5042195;28;20454;-66
2022/12/25 10:08:00;;;;;;;1.53;1.30;;;;;;;10.85;51.63;95570.78;5033857;28;20244;-67
2022/12/25 10:10:51;;;;;;;2.23;1.37;;;;;;;11.02;50.97;95572.72;5037575;28;20272;-66
2022/12/25 10:13:52;;;;;;;1.97;1.30;;;;;;;11.15;51.15;95567.19;5048136;28;20245;-67
2022/12/25 10:16:42;;;;;;;2.07;1.30;;;;;;;11.35;50.70;95562.69;5046070;28;20221;-67
2022/12/25 10:19:49;;;;;;;2.53;1.40;;;;;;;11.31;50.22;95570.03;5042293;28;20218;-66
2022/12/25 10:22:24;;;;;;;3.60;1.43;;;;;;;11.41;49.46;95570.00;5013077;28;20218;-67
2022/12/25 10:24:53;;;;;;;2.73;1.57;;;;;;;11.38;49.42;95573.75;5018751;28;20225;-67
2022/12/25 10:27:35;;;;;;;4.33;1.53;;;;;;;11.41;49.26;95562.94;5016204;28;20289;-66
2022/12/25 10:30:12;;;;;;;1.80;1.20;;;;;;;11.52;48.81;95569.00;5008175;28;20187;-67
2022/12/25 10:32:37;;;;;;;1.83;1.30;;;;;;;11.59;48.49;95564.81;4996101;28;20783;-67
2022/12/25 10:35:04;;;;;;;1.37;1.13;;;;;;;11.65;48.34;95564.22;5027492;28;20222;-67
2022/12/25 10:37:29;;;;;;;1.63;1.13;;;;;;;11.74;48.11;95563.38;5029953;28;20308;-67
2022/12/25 10:39:56;;;;;;;1.97;1.27;;;;;;;11.79;48.38;95561.13;5005334;28;20219;-67
2022/12/25 10:42:42;;;;;;;2.00;1.10;;;;;;;11.98;47.79;95575.22;5010427;28;20210;-67
2022/12/25 10:45:08;;;;;;;1.37;1.20;;;;;;;11.99;47.34;95574.25;5018455;28;20210;-67
2022/12/25 10:47:39;;;;;;;2.83;1.17;;;;;;;12.04;47.11;95572.81;5031242;28;20232;-67
2022/12/25 10:50:16;;;;;;;2.50;1.27;;;;;;;12.05;47.35;95563.94;5018560;28;20226;-67
2022/12/25 10:52:55;;;;;;;2.27;1.20;;;;;;;12.22;46.87;95569.41;5031928;28;20729;-67
2022/12/25 10:55:21;;;;;;;2.90;1.33;;;;;;;12.30;46.68;95559.78;5027356;28;20245;-67
2022/12/25 10:57:46;;;;;;;1.05;0.95;;;;;;;12.38;46.69;95572.22;5015435;28;20222;-67
2022/12/25 11:00:20;;;;;;;2.67;1.43;;;;;;;12.38;47.16;95559.03;5031729;28;20193;-67
2022/12/25 11:02:45;;;;;;;2.70;1.40;;;;;;;12.40;47.03;95561.50;5052250;28;20229;-67
2022/12/25 11:05:27;;;;;;;2.70;1.53;;;;;;;12.24;47.20;95560.38;5048836;28;20213;-67
2022/12/25 11:07:53;;;;;;;2.30;1.23;;;;;;;12.28;47.28;95560.91;5038395;28;20252;-67
2022/12/25 11:10:31;;;;;;;1.85;1.20;;;;;;;12.20;47.33;95564.28;5030528;28;20225;-67
2022/12/25 11:12:58;;;;;;;2.17;1.35;;;;;;;12.22;47.59;95578.16;5041130;28;20267;-67
2022/12/25 11:15:43;;;;;;;2.57;1.40;;;;;;;12.17;48.01;95554.03;5044792;28;20185;-67
2022/12/25 11:18:23;;;;;;;3.20;1.27;;;;;;;12.34;47.73;95555.84;5052088;28;20236;-67
2022/12/25 11:20:52;;;;;;;2.63;1.42;;;;;;;12.61;47.02;95562.03;5030353;28;20247;-67
2022/12/25 11:23:19;;;;;;;4.68;1.20;;;;;;;12.82;46.44;95548.53;5021271;28;20210;-68
2022/12/25 11:25:55;;;;;;;2.28;1.42;;;;;;;13.12;44.93;95549.09;5022163;28;20227;-67
2022/12/25 11:28:20;;;;;;;2.40;1.50;;;;;;;13.72;43.32;95549.16;5037920;28;20266;-68
2022/12/25 11:30:49;;;;;;;1.38;1.10;;;;;;;13.68;43.38;95559.22;5038875;28;20222;-67
2022/12/25 11:33:16;;;;;;;2.38;1.48;;;;;;;13.40;44.18;95552.44;5039354;28;20178;-67
2022/12/25 11:35:49;;;;;;;2.17;1.50;;;;;;;13.31;43.76;95553.38;5028046;28;20209;-68
2022/12/25 11:38:14;;;;;;;1.88;1.10;;;;;;;12.95;44.75;95563.97;5033115;28;20222;-67
2022/12/25 11:40:51;;;;;;;2.50;1.50;;;;;;;12.76;45.33;95541.22;5027656;28;20292;-67
2022/12/25 11:43:29;;;;;;;2.45;1.40;;;;;;;13.08;44.76;95559.13;5027808;28;20246;-67
2022/12/25 11:46:37;;;;;;;3.28;1.73;;;;;;;13.18;44.68;95565.16;5022553;28;20238;-67
2022/12/25 11:49:07;;;;;;;2.30;1.37;;;;;;;13.40;44.33;95552.44;4992057;28;20223;-67
2022/12/25 11:51:36;;;;;;;1.90;1.45;;;;;;;13.36;44.33;95546.63;4977574;28;20257;-67
2022/12/25 11:54:09;;;;;;;2.72;1.40;;;;;;;13.22;45.12;95558.56;4992368;28;20195;-67
2022/12/25 11:56:36;;;;;;;2.53;1.20;;;;;;;13.38;44.40;95557.88;4990350;28;20251;-67
2022/12/25 11:59:19;;;;;;;2.40;1.50;;;;;;;13.30;45.00;95551.72;4994264;28;20222;-67
2022/12/25 12:01:53;;;;;;;2.83;1.50;;;;;;;13.54;44.59;95557.16;4997294;28;20227;-67
2022/12/25 12:04:35;;;;;;;2.00;1.60;;;;;;;13.79;43.45;95557.25;4973176;28;20354;-67
2022/12/25 12:07:12;;;;;;;2.33;1.48;;;;;;;13.93;42.85;95559.34;4980377;28;20734;-67
2022/12/25 12:09:49;;;;;;;2.78;1.50;;;;;;;14.09;42.79;95558.56;4986031;28;20205;-67
2022/12/25 12:12:25;;;;;;;2.47;1.30;;;;;;;14.15;42.32;95554.44;4975721;28;20190;-68
2022/12/25 12:15:18;;;;;;;2.85;1.50;;;;;;;14.33;42.44;95545.41;5011691;28;20219;-67
2022/12/25 12:17:43;;;;;;;2.70;1.50;;;;;;;14.23;42.29;95550.00;4994481;28;20385;-67
2022/12/25 12:20:30;;;;;;;2.72;1.40;;;;;;;14.30;42.39;95547.53;4994534;28;20223;-68
2022/12/25 12:22:57;;;;;;;2.97;1.65;;;;;;;14.13;42.26;95550.13;5006755;28;20223;-67
2022/12/25 12:25:22;;;;;;;2.38;1.33;;;;;;;14.39;41.83;95557.16;5020763;28;20273;-68
2022/12/25 12:27:57;;;;;;;2.40;1.70;;;;;;;14.47;41.45;95561.63;5022024;28;20246;-67
2022/12/25 12:30:25;;;;;;;3.40;1.70;;;;;;;14.36;41.87;95564.59;5015515;28;20193;-69
2022/12/25 12:32:53;;;;;;;2.17;1.35;;;;;;;14.47;41.55;95565.09;5038166;28;20187;-68
2022/12/25 12:35:24;;;;;;;1.95;1.40;;;;;;;14.47;41.02;95567.75;5034702;28;20246;-68
2022/12/25 12:38:05;;;;;;;3.00;1.60;;;;;;;14.64;40.78;95573.09;5055623;28;20265;-68
2022/12/25 12:40:32;;;;;;;4.07;1.60;;;;;;;15.71;38.50;95566.78;5035402;28;20293;-68
2022/12/25 12:42:59;;;;;;;1.77;1.33;;;;;;;15.69;38.26;95570.59;5032074;28;20224;-68
2022/12/25 12:45:31;;;;;;;2.50;1.60;;;;;;;15.17;39.65;95567.34;5042849;28;20208;-68
2022/12/25 12:47:57;;;;;;;2.90;1.35;;;;;;;14.83;40.03;95564.03;5026139;28;20253;-68
2022/12/25 12:50:34;;;;;;;3.65;1.60;;;;;;;14.63;40.81;95582.06;5036972;28;20221;-68
2022/12/25 12:53:16;;;;;;;2.13;1.60;;;;;;;14.66;40.48;95573.78;5029774;28;20226;-67
2022/12/25 12:55:41;;;;;;;4.38;1.67;;;;;;;14.65;40.00;95580.03;5035728;28;20222;-67
2022/12/25 12:58:22;;;;;;;1.83;1.40;;;;;;;14.60;40.76;95587.66;5043473;28;20300;-67
2022/12/25 13:00:56;;;;;;;2.95;1.80;;;;;;;14.72;40.50;95584.53;5042170;28;20213;-67
2022/12/25 13:03:46;;;;;;;2.47;1.97;;;;;;;14.73;39.94;95578.25;5048882;28;20193;-67
2022/12/25 13:06:39;;;;;;;2.88;1.90;;;;;;;14.78;39.61;95575.09;5034844;28;20214;-67
2022/12/25 13:09:23;;;;;;;2.65;1.60;;;;;;;14.91;39.50;95579.91;5009738;28;20218;-67
2022/12/25 13:11:49;;;;;;;2.95;1.70;;;;;;;14.78;39.40;95588.34;5003568;28;20321;-68
2022/12/25 13:14:18;;;;;;;1.85;1.48;;;;;;;14.75;39.29;95565.69;5011896;28;20219;-67
2022/12/25 13:16:46;;;;;;;2.95;1.88;;;;;;;14.50;39.75;95583.31;5010347;28;20347;-67
2022/12/25 13:19:15;;;;;;;2.38;1.42;;;;;;;14.46;40.26;95581.13;5011323;28;20276;-67
2022/12/25 13:21:53;;;;;;;1.70;1.38;;;;;;;14.75;39.61;95581.56;5011725;28;20226;-68
2022/12/25 13:24:22;;;;;;;2.03;1.50;;;;;;;14.51;40.09;95581.47;4999778;28;20185;-67
2022/12/25 13:26:47;;;;;;;2.67;1.63;;;;;;;14.22;40.34;95589.81;5009843;28;20194;-67
2022/12/25 13:29:33;;;;;;;2.67;1.70;;;;;;;14.11;40.34;95591.78;5012918;28;20256;-68
2022/12/25 13:34:53;;;;;;;2.53;1.70;;;;;;;13.75;41.09;95596.41;5020527;28;20357;-68
2022/12/25 13:37:25;;;;;;;5.00;2.00;;;;;;;13.55;42.03;95595.81;5005773;28;20226;-67